Time;durP1;ratioP1;P1;durP2;ratioP2;P2;SDS_P1;SDS_P2;PMS_P1;PMS_P2;Temp;Humidity;BMP_temperature;BMP_pressure;BME280_temperature;BME280_humidity;BME280_pressure;Samples;Min_cycle;Max_cycle;Signal;HPM_P1;HPM_P2
2021/09/29 00:02:41;;;;;;;3.97;3.70;;;;;;;13.46;74.12;102904.06;6263010;28;20231;-71
2021/09/29 00:05:47;;;;;;;4.10;3.70;;;;;;;13.34;75.30;102903.69;6261488;28;20235;-72
2021/09/29 00:08:51;;;;;;;4.95;4.40;;;;;;;13.41;74.29;102899.16;6262442;28;20279;-72
2021/09/29 00:11:55;;;;;;;6.15;4.20;;;;;;;13.39;74.34;102903.13;6261350;28;20189;-72
2021/09/29 00:14:59;;;;;;;4.40;4.13;;;;;;;13.33;74.15;102890.16;6261413;28;20516;-72
2021/09/29 00:18:04;;;;;;;6.18;4.18;;;;;;;13.49;73.53;102896.34;6261329;28;20216;-71
2021/09/29 00:21:11;;;;;;;4.50;4.30;;;;;;;13.32;74.81;102896.69;6261247;28;20222;-72
2021/09/29 00:24:16;;;;;;;4.07;3.95;;;;;;;13.25;76.10;102893.81;6261583;28;20254;-72
2021/09/29 00:27:20;;;;;;;4.72;4.32;;;;;;;13.39;75.02;102890.25;6260560;28;20238;-72
2021/09/29 00:30:24;;;;;;;4.53;4.18;;;;;;;13.31;75.76;102882.09;6261081;28;20503;-72
2021/09/29 00:33:28;;;;;;;4.40;4.20;;;;;;;13.41;75.09;102890.06;6265171;28;20184;-71
2021/09/29 00:36:34;;;;;;;4.85;4.65;;;;;;;13.37;75.45;102886.88;6266593;28;20184;-71
2021/09/29 00:39:39;;;;;;;5.03;4.78;;;;;;;13.32;75.77;102878.34;6266933;28;20240;-72
2021/09/29 00:42:43;;;;;;;5.00;4.70;;;;;;;13.31;76.91;102887.59;6267358;28;20311;-72
2021/09/29 00:45:47;;;;;;;5.28;4.97;;;;;;;13.31;75.96;102882.09;6266575;28;20192;-72
2021/09/29 00:48:51;;;;;;;6.78;4.72;;;;;;;13.28;76.54;102877.00;6265840;28;20394;-72
2021/09/29 00:51:57;;;;;;;5.00;4.82;;;;;;;13.26;76.89;102873.59;6265948;28;20375;-72
2021/09/29 00:55:02;;;;;;;5.82;5.40;;;;;;;13.36;75.70;102878.81;6266353;28;20234;-72
2021/09/29 00:58:06;;;;;;;5.60;5.40;;;;;;;13.28;76.79;102871.50;6267011;28;20217;-72
2021/09/29 01:01:10;;;;;;;6.22;5.70;;;;;;;13.38;75.68;102872.09;6266743;28;20297;-72
2021/09/29 01:04:15;;;;;;;5.10;4.80;;;;;;;13.39;75.40;102868.31;6265731;28;20264;-72
2021/09/29 01:07:25;;;;;;;6.40;5.50;;;;;;;13.32;75.71;102867.38;6266635;28;20185;-72
2021/09/29 01:10:35;;;;;;;5.80;5.40;;;;;;;13.38;75.12;102874.00;6266651;28;20231;-72
2021/09/29 01:13:48;;;;;;;5.28;5.07;;;;;;;13.39;75.21;102873.81;6265439;28;20382;-72
2021/09/29 01:16:57;;;;;;;5.50;5.30;;;;;;;13.39;75.18;102873.81;6266105;28;20185;-72
2021/09/29 01:20:07;;;;;;;5.25;4.93;;;;;;;13.42;75.13;102867.97;6266383;28;20276;-72
2021/09/29 01:23:39;;;;;;;5.53;5.22;;;;;;;13.54;73.97;102866.44;6265360;28;20185;-72
2021/09/29 01:26:47;;;;;;;5.03;4.63;;;;;;;13.40;75.09;102875.53;6266166;28;20231;-71
2021/09/29 01:29:52;;;;;;;4.82;4.63;;;;;;;13.33;75.67;102880.03;6265045;28;20193;-71
2021/09/29 01:32:56;;;;;;;6.10;5.07;;;;;;;13.34;74.84;102870.78;6265003;28;20191;-72
2021/09/29 01:36:01;;;;;;;5.05;4.85;;;;;;;13.41;74.35;102874.47;6264895;28;20546;-72
2021/09/29 01:39:08;;;;;;;5.30;5.00;;;;;;;13.43;74.65;102863.34;6266001;28;20227;-72
2021/09/29 01:42:14;;;;;;;4.95;4.57;;;;;;;13.51;74.14;102872.31;6264617;28;20469;-71
2021/09/29 01:45:18;;;;;;;5.03;4.82;;;;;;;13.46;74.60;102869.28;6265001;28;20188;-72
2021/09/29 01:48:22;;;;;;;4.78;4.47;;;;;;;13.44;74.43;102865.88;6265746;28;20185;-72
2021/09/29 01:51:27;;;;;;;4.57;4.30;;;;;;;13.60;73.04;102860.22;6265730;28;20196;-72
2021/09/29 01:54:33;;;;;;;5.03;4.28;;;;;;;13.45;74.65;102867.59;6265884;28;20184;-72
2021/09/29 01:57:38;;;;;;;4.85;4.47;;;;;;;13.48;75.48;102861.72;6265764;28;20207;-72
2021/09/29 02:00:44;;;;;;;7.78;4.22;;;;;;;13.33;75.66;102862.75;6265203;28;20216;-72
2021/09/29 02:03:48;;;;;;;4.68;4.40;;;;;;;13.25;75.72;102855.44;6264335;28;20236;-72
2021/09/29 02:06:55;;;;;;;4.90;4.50;;;;;;;13.39;74.72;102851.88;6264591;28;20184;-71
2021/09/29 02:10:00;;;;;;;4.90;4.50;;;;;;;13.41;74.71;102855.28;6264572;28;20286;-72
2021/09/29 02:13:05;;;;;;;4.63;4.32;;;;;;;13.43;74.16;102855.94;6264107;28;20185;-72
2021/09/29 02:16:11;;;;;;;4.50;4.20;;;;;;;13.32;75.06;102853.66;6265124;28;20252;-72
2021/09/29 02:19:16;;;;;;;5.22;4.63;;;;;;;13.32;75.84;102850.94;6264047;28;20523;-72
2021/09/29 02:22:21;;;;;;;5.05;4.85;;;;;;;13.42;74.88;102857.00;6264790;28;20185;-71
2021/09/29 02:25:25;;;;;;;4.93;4.65;;;;;;;13.30;75.83;102847.50;6265221;28;20185;-71
2021/09/29 02:28:30;;;;;;;5.32;5.00;;;;;;;13.31;76.21;102848.34;6265054;28;20185;-72
2021/09/29 02:31:35;;;;;;;5.03;4.65;;;;;;;13.23;76.73;102846.53;6263416;28;20220;-72
2021/09/29 02:34:39;;;;;;;5.60;5.10;;;;;;;13.25;76.89;102843.63;6264353;28;20185;-72
2021/09/29 02:37:43;;;;;;;5.43;5.03;;;;;;;13.31;76.12;102837.38;6263590;28;20272;-72
2021/09/29 02:40:47;;;;;;;5.57;5.05;;;;;;;13.27;76.86;102831.44;6263269;28;20209;-71
2021/09/29 02:43:53;;;;;;;5.68;5.20;;;;;;;13.39;74.84;102835.41;6263450;28;20217;-72
2021/09/29 02:46:57;;;;;;;6.53;5.25;;;;;;;13.20;76.11;102819.50;6264052;28;20185;-72
2021/09/29 02:50:01;;;;;;;5.00;4.75;;;;;;;13.33;74.89;102836.16;6264300;28;20255;-72
2021/09/29 02:53:05;;;;;;;5.57;5.00;;;;;;;13.20;75.05;102824.16;6264525;28;20191;-72
2021/09/29 02:56:10;;;;;;;5.00;4.60;;;;;;;13.26;75.36;102824.25;6262810;28;20450;-72
2021/09/29 02:59:16;;;;;;;5.25;4.85;;;;;;;13.27;74.86;102823.22;6264175;28;20230;-72
2021/09/29 03:02:20;;;;;;;5.13;4.82;;;;;;;13.22;75.01;102828.41;6264330;28;20294;-72
2021/09/29 03:05:24;;;;;;;5.50;5.20;;;;;;;13.14;75.63;102837.56;6263691;28;20310;-72
2021/09/29 03:08:28;;;;;;;4.93;4.78;;;;;;;13.29;74.51;102818.41;6264196;28;20287;-72
2021/09/29 03:11:33;;;;;;;5.32;4.90;;;;;;;13.23;75.12;102824.63;6264091;28;20220;-71
2021/09/29 03:14:39;;;;;;;4.88;4.63;;;;;;;13.15;75.67;102816.47;6263456;28;20185;-72
2021/09/29 03:17:43;;;;;;;5.03;4.53;;;;;;;13.29;74.55;102818.41;6262995;28;20422;-71
2021/09/29 03:20:47;;;;;;;10.93;4.65;;;;;;;13.10;75.80;102818.91;6263314;28;20287;-72
2021/09/29 03:23:51;;;;;;;8.27;4.85;;;;;;;12.95;76.91;102812.53;6262348;28;20371;-72
2021/09/29 03:26:56;;;;;;;5.55;5.03;;;;;;;13.06;76.17;102818.44;6263526;28;20192;-72
2021/09/29 03:30:02;;;;;;;6.10;4.50;;;;;;;12.94;76.79;102819.06;6263409;28;20259;-72
2021/09/29 03:33:07;;;;;;;5.07;4.50;;;;;;;12.95;76.89;102815.25;6263050;28;20216;-72
2021/09/29 03:36:11;;;;;;;10.43;5.05;;;;;;;13.06;76.46;102817.56;6263286;28;20184;-71
2021/09/29 03:39:15;;;;;;;11.98;5.07;;;;;;;13.02;76.78;102819.81;6262669;28;20185;-72
2021/09/29 03:42:19;;;;;;;9.52;4.95;;;;;;;13.04;77.19;102814.16;6263203;28;20221;-72
2021/09/29 03:45:25;;;;;;;5.13;4.72;;;;;;;12.94;78.02;102813.56;6261763;28;20185;-72
2021/09/29 03:48:29;;;;;;;6.32;4.85;;;;;;;12.87;78.47;102815.31;6262689;28;20185;-72
2021/09/29 03:51:33;;;;;;;6.22;4.93;;;;;;;13.07;76.97;102811.09;6263083;28;20264;-72
2021/09/29 03:54:38;;;;;;;4.88;4.45;;;;;;;13.07;77.00;102802.88;6262403;28;20185;-72
2021/09/29 03:57:42;;;;;;;4.95;4.50;;;;;;;13.00;77.70;102807.34;6261550;28;20220;-72
2021/09/29 04:00:48;;;;;;;5.03;4.60;;;;;;;13.04;77.44;102815.03;6262504;28;20220;-72
2021/09/29 04:03:52;;;;;;;4.88;4.47;;;;;;;13.08;77.95;102802.66;6261664;28;20228;-72
2021/09/29 04:06:56;;;;;;;5.32;4.45;;;;;;;12.99;78.79;102805.66;6262009;28;20217;-71
2021/09/29 04:10:00;;;;;;;5.00;4.50;;;;;;;13.06;78.01;102791.06;6261273;28;20488;-72
2021/09/29 04:13:06;;;;;;;5.78;4.28;;;;;;;13.09;77.92;102800.78;6262458;28;20201;-72
2021/09/29 04:16:12;;;;;;;11.85;4.50;;;;;;;13.14;77.78;102809.31;6262356;28;20208;-72
2021/09/29 04:19:17;;;;;;;4.60;4.18;;;;;;;12.98;78.81;102810.28;6261652;28;20185;-71
2021/09/29 04:22:22;;;;;;;4.60;4.30;;;;;;;13.05;78.38;102811.22;6261026;28;20467;-71
2021/09/29 04:25:26;;;;;;;7.95;4.70;;;;;;;13.07;78.83;102808.34;6262200;28;20184;-72
2021/09/29 04:28:41;;;;;;;5.50;4.32;;;;;;;13.01;79.22;102820.00;6262711;28;20189;-72
2021/09/29 04:31:46;;;;;;;4.93;4.55;;;;;;;12.92;80.29;102821.09;6262222;28;20224;-72
2021/09/29 04:34:50;;;;;;;4.35;4.15;;;;;;;12.90;80.90;102817.69;6261107;28;20442;-72
2021/09/29 04:37:54;;;;;;;6.18;4.70;;;;;;;12.92;80.91;102805.53;6262171;28;20185;-72
2021/09/29 04:40:58;;;;;;;8.60;4.53;;;;;;;13.12;80.11;102816.88;6262080;28;20259;-72
2021/09/29 04:44:02;;;;;;;11.45;5.03;;;;;;;13.09;80.17;102806.25;6261617;28;20207;-72
2021/09/29 04:47:08;;;;;;;6.75;4.80;;;;;;;13.14;80.18;102821.13;6262030;28;20185;-72
2021/09/29 04:50:13;;;;;;;5.53;5.03;;;;;;;13.07;80.99;102809.19;6260977;28;20357;-72
2021/09/29 04:53:17;;;;;;;5.25;4.47;;;;;;;13.02;81.26;102819.81;6262262;28;20216;-72
2021/09/29 04:56:21;;;;;;;5.35;4.85;;;;;;;12.96;81.80;102816.97;6261545;28;20267;-71
2021/09/29 04:59:25;;;;;;;7.03;4.47;;;;;;;13.11;81.28;102815.16;6261946;28;20184;-72
2021/09/29 05:02:33;;;;;;;6.97;4.88;;;;;;;13.07;81.69;102822.06;6262169;28;20252;-72
2021/09/29 05:05:37;;;;;;;5.47;4.70;;;;;;;12.97;82.66;102807.69;6260910;28;20490;-72
2021/09/29 05:08:44;;;;;;;5.47;4.68;;;;;;;13.11;81.82;102809.66;6260882;28;20248;-72
2021/09/29 05:11:54;;;;;;;5.22;4.75;;;;;;;13.10;82.36;102818.91;6261758;28;20194;-72
2021/09/29 05:14:59;;;;;;;7.10;4.28;;;;;;;13.07;82.28;102819.31;6262075;28;20185;-72
2021/09/29 05:18:05;;;;;;;5.35;4.55;;;;;;;13.16;81.92;102818.19;6262089;28;20185;-72
2021/09/29 05:21:11;;;;;;;5.45;4.68;;;;;;;13.18;82.26;102816.09;6265497;28;20191;-72
2021/09/29 05:24:15;;;;;;;7.25;4.40;;;;;;;13.23;82.19;102818.28;6265640;28;20374;-73
2021/09/29 05:27:19;;;;;;;17.95;4.78;;;;;;;13.22;82.41;102814.72;6264989;28;20410;-72
2021/09/29 05:30:23;;;;;;;4.07;3.80;;;;;;;13.26;82.12;102818.75;6266388;28;20185;-72
2021/09/29 05:33:29;;;;;;;9.02;4.53;;;;;;;13.23;82.53;102830.09;6266304;28;20307;-72
2021/09/29 05:36:33;;;;;;;16.70;4.95;;;;;;;13.31;82.24;102813.56;6265948;28;20251;-72
2021/09/29 05:39:37;;;;;;;4.53;4.13;;;;;;;13.27;82.57;102820.47;6265374;28;20191;-72
2021/09/29 05:42:41;;;;;;;9.20;4.90;;;;;;;13.24;83.04;102820.84;6264908;28;20217;-72
2021/09/29 05:45:45;;;;;;;6.68;5.05;;;;;;;13.28;82.98;102824.91;6264627;28;20476;-73
2021/09/29 05:48:51;;;;;;;6.40;4.55;;;;;;;13.15;83.76;102816.47;6265634;28;20223;-73
2021/09/29 05:51:55;;;;;;;7.03;4.82;;;;;;;13.17;83.42;102811.69;6264658;28;20445;-73
2021/09/29 05:55:00;;;;;;;6.93;4.60;;;;;;;13.28;82.89;102810.34;6264670;28;20192;-73
2021/09/29 05:58:04;;;;;;;6.30;4.63;;;;;;;13.28;83.13;102805.72;6264262;28;20185;-73
2021/09/29 06:01:10;;;;;;;7.95;4.57;;;;;;;13.34;82.66;102826.91;6264374;28;20224;-73
2021/09/29 06:04:15;;;;;;;5.80;4.60;;;;;;;13.29;83.03;102812.91;6264873;28;20252;-74
2021/09/29 06:07:20;;;;;;;8.13;4.78;;;;;;;13.46;82.41;102808.09;6265485;28;20185;-73
2021/09/29 06:10:24;;;;;;;4.85;4.55;;;;;;;13.36;82.43;102813.84;6265174;28;20192;-73
2021/09/29 06:13:28;;;;;;;6.60;4.22;;;;;;;13.46;81.83;102808.94;6265051;28;20195;-73
2021/09/29 06:16:34;;;;;;;6.82;4.20;;;;;;;13.46;82.43;102813.56;6265336;28;20231;-74
2021/09/29 06:19:40;;;;;;;6.88;3.95;;;;;;;13.47;82.31;102810.66;6247481;28;20208;-73
2021/09/29 06:22:44;;;;;;;8.10;4.30;;;;;;;13.56;81.66;102811.41;6265005;28;20212;-73
2021/09/29 06:25:49;;;;;;;8.77;3.95;;;;;;;13.48;81.87;102812.34;6264344;28;20252;-73
2021/09/29 06:28:53;;;;;;;4.60;4.10;;;;;;;13.47;82.33;102805.19;6264978;28;20185;-73
2021/09/29 06:31:57;;;;;;;4.78;4.38;;;;;;;13.54;81.58;102816.22;6263426;28;20188;-73
2021/09/29 06:35:04;;;;;;;6.68;3.97;;;;;;;13.57;81.32;102794.78;6264697;28;20189;-72
2021/09/29 06:38:10;;;;;;;8.48;4.45;;;;;;;13.60;81.63;102805.38;6264227;28;20216;-72
2021/09/29 06:41:14;;;;;;;6.13;4.30;;;;;;;13.64;82.07;102805.81;6263740;28;20193;-73
2021/09/29 06:44:18;;;;;;;7.28;4.63;;;;;;;13.72;81.09;102803.84;6263203;28;20378;-73
2021/09/29 06:47:26;;;;;;;6.85;4.45;;;;;;;13.67;82.58;102811.78;6264427;28;20185;-73
2021/09/29 06:50:32;;;;;;;6.68;4.75;;;;;;;13.75;81.66;102813.59;6263090;28;20215;-73
2021/09/29 06:53:36;;;;;;;8.35;4.55;;;;;;;13.78;81.13;102811.31;6263542;28;20276;-73
2021/09/29 06:56:40;;;;;;;5.85;4.20;;;;;;;13.73;81.25;102815.66;6263404;28;20264;-73
2021/09/29 06:59:44;;;;;;;9.38;4.60;;;;;;;13.87;80.70;102813.97;6263937;28;20215;-73
2021/09/29 07:02:49;;;;;;;9.70;4.70;;;;;;;13.90;80.81;102806.19;6262882;28;20224;-72
2021/09/29 07:05:55;;;;;;;6.80;4.38;;;;;;;13.90;80.29;102816.31;6263507;28;20239;-73
2021/09/29 07:08:59;;;;;;;5.35;3.85;;;;;;;13.91;80.50;102812.53;6264010;28;20185;-73
2021/09/29 07:12:05;;;;;;;10.98;4.35;;;;;;;13.89;80.29;102810.00;6263406;28;20200;-71
2021/09/29 07:15:11;;;;;;;5.75;4.53;;;;;;;13.99;79.71;102812.44;6262520;28;20490;-72
2021/09/29 07:18:17;;;;;;;7.20;4.28;;;;;;;14.05;79.57;102817.13;6263524;28;20231;-72
2021/09/29 07:21:27;;;;;;;4.85;4.25;;;;;;;14.12;79.49;102812.59;6263719;28;20184;-71
2021/09/29 07:24:31;;;;;;;7.65;4.45;;;;;;;13.98;79.71;102818.94;6262207;28;20572;-72
2021/09/29 07:27:36;;;;;;;4.85;3.92;;;;;;;14.01;80.58;102813.06;6262454;28;20185;-72
2021/09/29 07:30:45;;;;;;;8.27;4.25;;;;;;;14.00;80.53;102814.97;6263202;28;20248;-71
2021/09/29 07:33:49;;;;;;;9.38;4.50;;;;;;;14.00;79.46;102811.38;6263188;28;20189;-71
2021/09/29 07:36:55;;;;;;;13.82;4.32;;;;;;;14.08;79.23;102808.50;6262674;28;20189;-71
2021/09/29 07:39:59;;;;;;;8.38;4.32;;;;;;;14.10;79.33;102817.41;6263016;28;20184;-72
2021/09/29 07:43:04;;;;;;;5.13;3.97;;;;;;;14.12;79.35;102812.59;6262408;28;20229;-72
2021/09/29 07:46:09;;;;;;;9.35;4.32;;;;;;;14.16;79.06;102811.16;6263003;28;20185;-72
2021/09/29 07:49:13;;;;;;;4.97;4.28;;;;;;;14.22;78.65;102816.75;6262883;28;20193;-72
2021/09/29 07:52:19;;;;;;;4.32;3.92;;;;;;;14.19;79.06;102824.50;6261877;28;20389;-72
2021/09/29 07:55:23;;;;;;;6.47;3.85;;;;;;;14.23;78.12;102823.06;6263123;28;20195;-72
2021/09/29 07:58:27;;;;;;;4.70;4.40;;;;;;;14.26;79.05;102817.19;6263135;28;20192;-72
2021/09/29 08:01:31;;;;;;;6.88;3.80;;;;;;;14.28;78.30;102804.97;6262877;28;20208;-72
2021/09/29 08:04:35;;;;;;;7.50;4.45;;;;;;;14.31;78.06;102814.72;6262072;28;20276;-72
2021/09/29 08:07:41;;;;;;;5.28;4.10;;;;;;;14.28;78.04;102820.56;6262881;28;20207;-72
2021/09/29 08:10:46;;;;;;;5.60;3.95;;;;;;;14.30;78.07;102813.03;6261449;28;20502;-71
2021/09/29 08:13:50;;;;;;;6.20;3.88;;;;;;;14.38;78.28;102810.16;6262494;28;20195;-72
2021/09/29 08:16:54;;;;;;;14.13;4.70;;;;;;;14.35;78.14;102810.56;6262525;28;20185;-72
2021/09/29 08:20:02;;;;;;;7.80;3.88;;;;;;;14.35;78.24;102816.88;6262670;28;20350;-72
2021/09/29 08:23:11;;;;;;;8.00;3.92;;;;;;;14.36;78.53;102812.25;6261683;28;20263;-72
2021/09/29 08:30:03;;;;;;;5.50;4.18;;;;;;;14.35;77.20;102807.81;6261220;28;20381;-72
2021/09/29 08:33:15;;;;;;;11.90;4.40;;;;;;;14.38;78.76;102805.53;6261958;28;20205;-72
2021/09/29 08:36:29;;;;;;;9.25;4.47;;;;;;;14.43;77.93;102797.53;6262626;28;20260;-72
2021/09/29 08:39:40;;;;;;;7.35;3.88;;;;;;;14.44;77.67;102803.91;6261767;28;20192;-72
2021/09/29 08:46:10;;;;;;;9.15;4.68;;;;;;;14.33;78.64;102796.16;6261019;28;20244;-72
2021/09/29 08:49:21;;;;;;;9.50;4.30;;;;;;;14.35;77.43;102791.34;6262339;28;20283;-72
2021/09/29 08:56:03;;;;;;;13.18;4.20;;;;;;;14.38;77.55;102800.03;6264580;28;20227;-72
2021/09/29 09:16:11;;;;;;;7.05;4.55;;;;;;;14.50;76.04;102792.13;6266661;28;20196;-72
2021/09/29 09:19:15;;;;;;;5.43;4.07;;;;;;;14.52;75.50;102800.16;6265176;28;20216;-72
2021/09/29 09:22:20;;;;;;;8.45;4.07;;;;;;;14.54;76.81;102798.94;6266179;28;20185;-72
2021/09/29 09:25:36;;;;;;;5.95;4.47;;;;;;;14.61;76.90;102791.59;6264968;28;20500;-72
2021/09/29 09:28:43;;;;;;;8.13;3.80;;;;;;;14.61;76.60;102799.00;6266391;28;20284;-72
2021/09/29 09:31:47;;;;;;;4.05;3.72;;;;;;;14.68;76.32;102795.28;6265958;28;20185;-72
2021/09/29 09:35:00;;;;;;;8.23;4.18;;;;;;;14.65;75.96;102795.66;6266172;28;20264;-72
2021/09/29 09:38:12;;;;;;;10.10;4.32;;;;;;;14.69;75.89;102796.97;6265855;28;20208;-72
2021/09/29 09:41:16;;;;;;;9.15;4.47;;;;;;;14.70;75.79;102793.19;6265747;28;20275;-72
2021/09/29 09:44:24;;;;;;;11.20;4.20;;;;;;;14.71;76.14;102803.13;6264601;28;20378;-72
2021/09/29 09:47:38;;;;;;;6.85;4.18;;;;;;;14.72;75.88;102801.22;6265706;28;20223;-72
2021/09/29 09:50:42;;;;;;;14.25;4.70;;;;;;;14.75;75.37;102790.69;6265552;28;20185;-72
2021/09/29 09:53:54;;;;;;;7.25;3.83;;;;;;;14.78;74.40;102793.03;6265372;28;20320;-72
2021/09/29 09:56:58;;;;;;;6.07;3.70;;;;;;;14.63;75.26;102792.28;6265677;28;20191;-72
2021/09/29 10:00:06;;;;;;;4.82;4.28;;;;;;;14.65;76.25;102795.66;6265688;28;20189;-72
2021/09/29 10:03:17;;;;;;;6.90;4.07;;;;;;;14.69;75.20;102790.63;6265728;28;20201;-72
2021/09/29 10:06:23;;;;;;;4.25;3.85;;;;;;;14.65;75.12;102790.19;6264586;28;20275;-72
2021/09/29 10:09:34;;;;;;;4.72;4.15;;;;;;;14.58;75.06;102802.16;6264369;28;20185;-72
2021/09/29 10:12:58;;;;;;;5.78;4.90;;;;;;;14.68;74.94;102795.28;6265350;28;20232;-72
2021/09/29 10:23:11;;;;;;;7.43;3.90;;;;;;;14.78;75.19;102789.44;6264712;28;20232;-72
2021/09/29 10:26:22;;;;;;;4.78;4.25;;;;;;;14.76;75.88;102778.66;6264938;28;20275;-72
2021/09/29 10:29:36;;;;;;;7.47;4.40;;;;;;;14.65;74.95;102784.69;6265025;28;20191;-72
2021/09/29 10:32:44;;;;;;;8.90;5.45;;;;;;;14.84;75.05;102780.41;6263656;28;20485;-71
2021/09/29 10:36:02;;;;;;;5.13;4.10;;;;;;;14.92;75.24;102781.09;6264433;28;20263;-73
2021/09/29 10:42:39;;;;;;;10.98;4.18;;;;;;;15.03;74.06;102772.31;6264386;28;20248;-73
2021/09/29 10:46:03;;;;;;;6.85;4.30;;;;;;;15.05;74.00;102778.47;6264648;28;20216;-72
2021/09/29 10:49:20;;;;;;;11.57;4.38;;;;;;;15.01;73.21;102768.94;6263254;28;20446;-72
2021/09/29 11:30:06;;;;;;;7.18;4.03;;;;;;;14.91;71.87;102768.44;6238679;28;20296;-72
2021/09/29 11:33:26;;;;;;;5.30;4.38;;;;;;;14.93;71.95;102765.47;6238110;28;20185;-72
2021/09/29 11:36:50;;;;;;;7.13;4.07;;;;;;;14.93;71.68;102760.84;6239026;28;20189;-72
2021/09/29 11:48:28;;;;;;;7.28;4.00;;;;;;;15.04;71.89;102753.94;6237500;28;20190;-72
2021/09/29 12:10:34;;;;;;;7.13;4.18;;;;;;;14.94;71.29;102757.03;6262933;28;20192;-73
2021/09/29 12:13:45;;;;;;;7.80;4.10;;;;;;;14.86;70.78;102743.44;6261563;28;20499;-73
2021/09/29 12:16:50;;;;;;;7.55;3.78;;;;;;;14.89;70.82;102743.03;6261570;28;20364;-73
2021/09/29 12:19:57;;;;;;;4.85;4.45;;;;;;;14.94;71.20;102746.03;6261743;28;20407;-73
2021/09/29 12:23:03;;;;;;;7.05;4.00;;;;;;;14.88;71.84;102741.34;6261395;28;20481;-73
2021/09/29 12:26:27;;;;;;;8.85;4.43;;;;;;;14.91;71.83;102740.94;6262173;28;20216;-73
2021/09/29 12:29:36;;;;;;;9.30;3.92;;;;;;;14.86;70.58;102737.09;6264827;28;20562;-73
2021/09/29 12:32:53;;;;;;;4.65;4.22;;;;;;;14.88;71.67;102740.47;6267724;28;20189;-73
2021/09/29 12:35:57;;;;;;;5.30;4.57;;;;;;;14.95;71.44;102735.88;6266226;28;20527;-73
2021/09/29 12:39:03;;;;;;;9.45;4.32;;;;;;;14.96;72.72;102738.44;6266932;28;20184;-73
2021/09/29 12:42:09;;;;;;;6.32;4.07;;;;;;;14.86;71.51;102737.94;6266766;28;20192;-73
2021/09/29 12:45:14;;;;;;;5.03;3.88;;;;;;;14.87;71.44;102728.63;6267439;28;20252;-73
2021/09/29 12:48:23;;;;;;;6.63;4.30;;;;;;;14.86;71.75;102746.19;6267237;28;20207;-73
2021/09/29 12:51:28;;;;;;;7.65;4.32;;;;;;;14.82;72.22;102747.63;6266970;28;20224;-73
2021/09/29 12:54:32;;;;;;;5.43;4.22;;;;;;;14.77;74.01;102746.50;6266485;28;20184;-73
2021/09/29 12:57:36;;;;;;;5.32;4.10;;;;;;;14.86;72.62;102743.44;6265827;28;20189;-73
2021/09/29 13:00:41;;;;;;;5.05;4.28;;;;;;;14.86;71.49;102734.34;6265869;28;20185;-74
2021/09/29 13:03:46;;;;;;;9.73;4.60;;;;;;;14.80;72.02;102741.47;6266553;28;20184;-73
2021/09/29 13:06:50;;;;;;;13.32;3.78;;;;;;;14.68;72.88;102723.84;6265839;28;20213;-72
2021/09/29 13:09:54;;;;;;;11.18;4.63;;;;;;;14.71;73.05;102739.94;6266493;28;20223;-73
2021/09/29 13:12:59;;;;;;;9.00;4.43;;;;;;;14.70;74.26;102740.97;6266568;28;20184;-73
2021/09/29 13:16:06;;;;;;;8.13;4.43;;;;;;;14.74;72.15;102728.53;6266739;28;20204;-72
2021/09/29 13:19:13;;;;;;;8.35;4.82;;;;;;;14.68;72.66;102748.56;6266449;28;20185;-73
2021/09/29 13:22:36;;;;;;;12.70;4.07;;;;;;;14.77;72.57;102733.63;6266374;28;20208;-73
2021/09/29 13:26:04;;;;;;;10.70;4.25;;;;;;;14.71;73.64;102731.69;6266461;28;20256;-73
2021/09/29 13:39:19;;;;;;;6.10;4.72;;;;;;;14.74;73.18;102731.28;6264592;28;20185;-73
2021/09/29 13:42:24;;;;;;;5.88;4.05;;;;;;;14.70;72.58;102729.13;6265059;28;20208;-73
2021/09/29 13:45:29;;;;;;;12.18;4.57;;;;;;;14.77;72.42;102725.38;6265568;28;20185;-73
2021/09/29 13:48:34;;;;;;;9.98;4.57;;;;;;;14.79;72.67;102715.03;6265572;28;20240;-73
2021/09/29 13:51:43;;;;;;;12.65;4.32;;;;;;;14.78;73.19;102718.84;6265778;28;20185;-72
2021/09/29 13:54:50;;;;;;;10.90;4.65;;;;;;;14.69;73.99;102720.03;6264301;28;20469;-73
2021/09/29 13:57:59;;;;;;;5.30;4.03;;;;;;;14.53;75.14;102714.84;6264446;28;20193;-73
2021/09/29 14:01:24;;;;;;;9.88;4.78;;;;;;;14.57;75.47;102721.63;6264278;28;20201;-73
2021/09/29 14:14:52;;;;;;;10.27;4.78;;;;;;;14.47;76.02;102721.13;6263856;28;20472;-72
2021/09/29 14:31:36;;;;;;;8.82;4.78;;;;;;;14.32;76.45;102717.59;6263439;28;20253;-73
2021/09/29 14:34:40;;;;;;;10.05;4.97;;;;;;;14.40;75.68;102725.69;6264224;28;20233;-72
2021/09/29 14:37:45;;;;;;;12.50;4.95;;;;;;;14.33;75.71;102708.28;6263252;28;20188;-72
2021/09/29 14:40:50;;;;;;;6.25;4.35;;;;;;;14.15;76.74;102716.13;6263281;28;20238;-72
2021/09/29 14:43:55;;;;;;;8.85;4.60;;;;;;;14.12;76.50;102722.00;6264048;28;20185;-73
2021/09/29 14:46:59;;;;;;;14.82;5.13;;;;;;;14.22;76.31;102712.41;6264393;28;20215;-73
2021/09/29 14:50:05;;;;;;;8.88;4.85;;;;;;;14.18;76.75;102715.72;6264385;28;20189;-72
2021/09/29 14:53:12;;;;;;;6.13;4.70;;;;;;;14.20;76.66;102719.13;6262631;28;20185;-72
2021/09/29 14:56:19;;;;;;;7.75;4.80;;;;;;;14.18;76.87;102712.97;6264002;28;20185;-72
2021/09/29 14:59:23;;;;;;;10.23;5.00;;;;;;;14.25;76.79;102705.66;6263672;28;20192;-73
2021/09/29 15:02:28;;;;;;;9.38;4.53;;;;;;;14.37;76.16;102704.13;6263400;28;20536;-72
2021/09/29 15:05:32;;;;;;;12.88;5.25;;;;;;;14.27;76.15;102703.56;6263194;28;20235;-73
2021/09/29 15:08:40;;;;;;;9.25;5.07;;;;;;;14.35;75.89;102700.72;6263510;28;20208;-73
2021/09/29 15:11:45;;;;;;;7.85;5.00;;;;;;;14.19;76.50;102700.94;6263208;28;20186;-73
2021/09/29 15:14:55;;;;;;;12.65;4.90;;;;;;;14.19;76.43;102700.94;6262382;28;20185;-72
2021/09/29 15:18:03;;;;;;;11.05;4.32;;;;;;;14.14;76.61;102692.44;6263345;28;20193;-72
2021/09/29 15:21:21;;;;;;;6.80;5.00;;;;;;;14.09;77.05;102700.44;6262026;28;20416;-72
2021/09/29 15:31:50;;;;;;;6.72;4.18;;;;;;;14.17;76.67;102686.59;6157035;28;20467;-73
2021/09/29 15:48:26;;;;;;;6.88;4.45;;;;;;;13.76;77.33;102698.16;6261820;28;20276;-72
2021/09/29 15:51:39;;;;;;;9.13;4.40;;;;;;;13.96;76.34;102683.81;6262511;28;20223;-72
2021/09/29 15:54:53;;;;;;;10.63;4.40;;;;;;;13.78;76.80;102697.97;6262931;28;20185;-72
2021/09/29 15:58:12;;;;;;;9.70;4.07;;;;;;;13.82;76.80;102689.16;6261673;28;20503;-72
2021/09/29 16:01:18;;;;;;;13.38;4.15;;;;;;;13.86;76.90;102694.25;6261772;28;20403;-72
2021/09/29 16:04:29;;;;;;;11.45;4.55;;;;;;;13.82;77.11;102689.16;6262278;28;20296;-74
2021/09/29 16:07:40;;;;;;;10.85;4.13;;;;;;;13.75;76.84;102681.91;6261780;28;20244;-74
2021/09/29 16:11:18;;;;;;;9.15;4.60;;;;;;;13.81;76.74;102695.69;6261558;28;20359;-74
2021/09/29 16:18:09;;;;;;;21.17;4.93;;;;;;;13.63;76.63;102703.50;6262491;28;20204;-73
2021/09/29 16:31:23;;;;;;;28.85;5.07;;;;;;;13.47;76.62;102706.47;6262597;28;20256;-74
2021/09/29 16:34:33;;;;;;;18.35;4.70;;;;;;;13.42;76.82;102703.44;6262618;28;20193;-74
2021/09/29 16:37:37;;;;;;;14.75;4.13;;;;;;;13.56;76.17;102694.31;6262395;28;20189;-73
2021/09/29 16:40:41;;;;;;;18.45;4.72;;;;;;;13.45;76.38;102692.09;6262267;28;20192;-73
2021/09/29 16:43:46;;;;;;;19.70;4.93;;;;;;;13.46;76.54;102707.47;6262508;28;20216;-73
2021/09/29 16:46:53;;;;;;;14.18;5.13;;;;;;;13.51;75.75;102702.28;6262266;28;20264;-73
2021/09/29 16:49:58;;;;;;;16.45;5.40;;;;;;;13.36;75.61;102703.31;6262353;28;20247;-73
2021/09/29 16:53:08;;;;;;;11.15;4.30;;;;;;;13.42;75.48;102703.44;6262664;28;20196;-75
2021/09/29 16:56:13;;;;;;;12.15;4.75;;;;;;;13.29;75.93;102703.25;6261295;28;20353;-73
2021/09/29 16:59:29;;;;;;;17.98;5.25;;;;;;;13.34;76.19;102703.53;6261317;28;20220;-72
2021/09/29 17:02:35;;;;;;;17.02;4.32;;;;;;;13.33;75.41;102698.25;6261348;28;20232;-72
2021/09/29 17:05:40;;;;;;;10.43;4.65;;;;;;;13.45;75.30;102708.53;6261527;28;20236;-72
2021/09/29 17:08:45;;;;;;;21.27;5.18;;;;;;;13.21;75.69;102706.09;6262204;28;20271;-73
2021/09/29 17:11:50;;;;;;;17.30;4.93;;;;;;;13.35;75.21;102699.75;6261257;28;20456;-73
2021/09/29 17:14:54;;;;;;;16.50;4.88;;;;;;;13.37;74.90;102700.41;6263889;28;20185;-72
2021/09/29 17:17:59;;;;;;;18.50;5.00;;;;;;;13.19;76.52;102691.72;6266319;28;20259;-71
2021/09/29 17:21:04;;;;;;;14.20;4.47;;;;;;;13.19;75.62;102713.66;6266519;28;20192;-75